Time;durP1;ratioP1;P1;durP2;ratioP2;P2;SDS_P1;SDS_P2;PMS_P1;PMS_P2;Temp;Humidity;BMP_temperature;BMP_pressure;BME280_temperature;BME280_humidity;BME280_pressure;Samples;Min_cycle;Max_cycle;Signal;HPM_P1;HPM_P2
2022/10/06 00:00:26;;;;;;;;;;;;;;;12.95;100.00;21043.50;5073187;28;19923;-83
2022/10/06 00:03:11;;;;;;;;;;;;;;;12.89;100.00;23031.00;5077985;28;19963;-83
2022/10/06 00:05:37;;;;;;;;;;;;;;;12.86;100.00;27012.03;5073361;28;19921;-81
2022/10/06 00:08:04;;;;;;;;;;;;;;;12.82;100.00;28338.13;5058388;28;19931;-81
2022/10/06 00:10:29;;;;;;;;;;;;;;;12.75;100.00;29995.16;5056560;28;19935;-82
2022/10/06 00:12:56;;;;;;;;;;;;;;;12.73;100.00;30325.88;5056536;28;19916;-82
2022/10/06 00:15:23;;;;;;;;;;;;;;;12.63;100.00;28991.41;5061465;28;20364;-83
2022/10/06 00:17:50;;;;;;;;;;;;;;;12.56;100.00;28323.47;5071712;28;20358;-82
2022/10/06 00:20:16;;;;;;;;;;;;;;;12.61;100.00;26997.94;5057118;28;19917;-82
2022/10/06 00:22:44;;;;;;;;;;;;;;;12.62;100.00;24675.81;5058444;28;19967;-78
2022/10/06 00:25:11;;;;;;;;;;;;;;;12.61;100.00;22353.97;5054750;28;19924;-82
2022/10/06 00:27:39;;;;;;;;;;;;;;;12.64;100.00;23018.81;5060428;28;19924;-84
2022/10/06 00:30:06;;;;;;;;;;;;;;;12.66;100.00;23351.16;5058543;28;20015;-83
2022/10/06 00:32:39;;;;;;;;;;;;;;;12.62;100.00;24675.81;5057608;28;20349;-82
2022/10/06 00:35:05;;;;;;;;;;;;;;;12.64;100.00;23350.41;5052779;28;19921;-82
2022/10/06 00:37:34;;;;;;;;;;;;;;;12.66;100.00;23682.81;5056423;28;19917;-83
2022/10/06 00:40:01;;;;;;;;;;;;;;;12.61;100.00;22685.50;5077294;28;19916;-81
2022/10/06 00:42:28;;;;;;;;;;;;;;;12.70;100.00;24348.25;5058611;28;19921;-83
2022/10/06 00:44:54;;;;;;;;;;;;;;;12.69;100.00;28662.56;5076989;28;19928;-82
2022/10/06 00:47:21;;;;;;;;;;;;;;;12.69;100.00;30323.41;5076140;28;19924;-78
2022/10/06 00:49:48;;;;;;;;;;;;;;;12.73;100.00;33650.19;5038736;28;19925;-81
2022/10/06 00:52:22;;;;;;;;;;;;;;;12.72;100.00;35977.63;5070185;28;19917;-81
2022/10/06 00:54:47;;;;;;;;;;;;;;;12.71;100.00;36642.78;5047465;28;19939;-80
2022/10/06 00:57:13;;;;;;;;;;;;;;;12.78;100.00;40309.81;5057861;28;19920;-76
2022/10/06 00:59:39;;;;;;;;;;;;;;;12.69;100.00;41968.91;5074310;28;19966;-80
2022/10/06 01:02:23;;;;;;;;;;;;;;;12.64;100.00;40965.41;5064867;28;20015;-82
2022/10/06 01:04:57;;;;;;;;;;;;;;;12.71;100.00;43303.72;5051213;28;19927;-83
2022/10/06 01:07:25;;;;;;;;;;;;;;;12.71;100.00;42637.06;5075902;28;19920;-83
2022/10/06 01:09:50;;;;;;;;;;;;;;;12.65;100.00;40966.59;5054687;28;20008;-82
2022/10/06 01:12:24;;;;;;;;;;;;;;;12.63;100.00;44297.50;5044890;28;19970;-82
2022/10/06 01:14:51;;;;;;;;;;;;;;;12.61;100.00;49299.19;5074660;28;19924;-81
2022/10/06 01:17:22;;;;;;;;;;;;;;;12.52;100.00;47289.25;5053754;28;19917;-82
2022/10/06 01:19:53;;;;;;;;;;;;;;;12.43;100.00;43947.69;5057318;28;19989;-82
2022/10/06 01:22:39;;;;;;;;;;;;;;;12.38;100.00;43610.69;5066394;28;20442;-83
2022/10/06 01:25:05;;;;;;;;;;;;;;;12.31;100.00;42938.53;5055897;28;19917;-78
2022/10/06 01:27:31;;;;;;;;;;;;;;;12.32;100.00;42272.78;5055801;28;19928;-78
2022/10/06 01:29:58;;;;;;;;;;;;;;;12.29;100.00;40938.41;5073103;28;19921;-77
2022/10/06 01:32:26;;;;;;;;;;;;;;;12.20;100.00;39600.78;5074460;28;19935;-78
2022/10/06 01:34:51;;;;;;;;;;;;;;;12.11;100.00;35935.28;5073786;28;19916;-82
2022/10/06 01:37:17;;;;;;;;;;;;;;;12.06;100.00;31281.53;5053694;28;20396;-83
2022/10/06 01:39:42;;;;;;;;;;;;;;;12.08;100.00;29622.84;5055419;28;19916;-83
2022/10/06 01:42:16;;;;;;;;;;;;;;;12.06;100.00;25973.34;5070408;28;19917;-80
2022/10/06 01:44:41;;;;;;;;;;;;;;;12.06;100.00;24647.41;5045439;28;19921;-77
2022/10/06 01:47:07;;;;;;;;;;;;;;;12.02;100.00;25971.44;5074699;28;19935;-77
2022/10/06 01:49:32;;;;;;;;;;;;;;;12.06;100.00;25641.81;5040348;28;19936;-81
2022/10/06 01:51:58;;;;;;;;;;;;;;;12.03;100.00;25971.97;5073967;28;19924;-82
2022/10/06 01:54:30;;;;;;;;;;;;;;;12.00;100.00;24644.28;5045035;28;20293;-83
2022/10/06 01:56:58;;;;;;;;;;;;;;;12.02;100.00;25971.16;5041636;28;20395;-82
2022/10/06 01:59:23;;;;;;;;;;;;;;;12.01;100.00;26965.25;5074275;28;19924;-82
2022/10/06 02:01:49;;;;;;;;;;;;;;;11.98;100.00;28953.84;5073294;28;19992;-82
2022/10/06 02:04:16;;;;;;;;;;;;;;;11.97;100.00;30612.31;5074625;28;19917;-79
2022/10/06 02:06:41;;;;;;;;;;;;;;;11.99;100.00;31609.38;5093828;28;19920;-83
2022/10/06 02:09:06;;;;;;;;;;;;;;;11.97;100.00;33600.06;5093696;28;19916;-84
2022/10/06 02:11:32;;;;;;;;;;;;;;;11.89;100.00;33594.69;5074776;28;19932;-83
2022/10/06 02:14:03;;;;;;;;;;;;;;;11.85;100.00;32928.22;5089044;28;19921;-82
2022/10/06 02:16:30;;;;;;;;;;;;;;;11.80;100.00;30602.00;5072748;28;19928;-80
2022/10/06 02:18:55;;;;;;;;;;;;;;;11.77;100.00;29604.94;5083767;28;20021;-80
2022/10/06 02:21:21;;;;;;;;;;;;;;;11.77;100.00;26952.28;5068298;28;19921;-79
2022/10/06 02:23:51;;;;;;;;;;;;;;;11.71;100.00;25623.41;5067754;28;19916;-83
2022/10/06 02:26:18;;;;;;;;;;;;;;;11.66;100.00;21978.16;5078143;28;20372;-83
2022/10/06 02:28:44;;;;;;;;;;;;;;;11.65;100.00;18338.56;5090230;28;19916;-83
2022/10/06 02:31:09;;;;;;;;;;;;;;;11.67;100.00;15695.06;5086134;28;19920;-82
2022/10/06 02:33:36;;;;;;;;;;;;;;;11.75;100.00;13715.41;5072528;28;19923;-83
2022/10/06 02:36:01;;;;;;;;;;;;;;;11.76;100.00;12064.25;5073269;28;19942;-82
2022/10/06 02:38:27;;;;;;;;;;;;;;;11.73;100.00;11403.00;5073044;28;19920;-81
2022/10/06 02:40:52;;;;;;;;;;;;;;;11.64;100.00;10080.44;5088021;28;19920;-82
2022/10/06 02:43:30;;;;;;;;;;;;;;;11.65;100.00;8760.94;5075014;28;19927;-81
2022/10/06 02:46:00;;;;;;;;;;;;;;;11.60;100.00;8100.13;5091765;28;19920;-80
2022/10/06 02:48:26;;;;;;;;;;;;;;;11.56;100.00;6450.59;5076509;28;20011;-83
2022/10/06 02:50:54;;;;;;;;;;;;;;;11.55;100.00;4143.91;5071202;28;20384;-82
2022/10/06 02:53:19;;;;;;;;;;;;;;;11.53;100.00;3155.47;5058861;28;20015;-77
2022/10/06 02:55:45;;;;;;;;;;;;;;;11.56;100.00;2497.28;5039386;28;20011;-76
2022/10/06 02:58:10;;;;;;;;;;;;;;;11.59;100.00;2168.50;5055884;28;19980;-82
2022/10/06 03:00:36;;;;;;;;;;;;;;;11.60;100.00;2827.25;5055375;28;19942;-81
2022/10/06 03:03:03;;;;;;;;;;;;;;;11.50;100.00;2496.47;5055266;28;19916;-81
2022/10/06 03:05:29;;;;;;;;;;;;;;;11.52;100.00;1509.06;5072290;28;19927;-79
2022/10/06 03:07:54;;;;;;;;;;;;;;;11.60;100.00;1510.16;5091809;28;19916;-76
2022/10/06 03:10:19;;;;;;;;;;;;;;;11.68;100.00;3157.97;5081625;28;20019;-77
2022/10/06 03:12:51;;;;;;;;;;;;;;;11.71;100.00;4476.25;5084702;28;19916;-78
2022/10/06 03:15:17;;;;;;;;;;;;;;;11.70;100.00;6783.34;5091162;28;19920;-83
2022/10/06 03:17:46;;;;;;;;;;;;;;;11.67;100.00;7772.00;5091615;28;19916;-77
2022/10/06 03:20:12;;;;;;;;;;;;;;;11.62;100.00;8430.31;5072984;28;19917;-83
2022/10/06 03:22:42;;;;;;;;;;;;;;;11.71;100.00;9092.28;5086595;28;19987;-81
2022/10/06 03:25:08;;;;;;;;;;;;;;;11.70;100.00;11402.22;5071684;28;20266;-82
2022/10/06 03:27:33;;;;;;;;;;;;;;;11.67;100.00;10741.16;5066168;28;19927;-78
2022/10/06 03:29:59;;;;;;;;;;;;;;;11.66;100.00;11070.91;5086277;28;19916;-75
2022/10/06 03:32:24;;;;;;;;;;;;;;;11.62;100.00;11729.84;5084916;28;19932;-82
2022/10/06 03:34:49;;;;;;;;;;;;;;;11.69;100.00;12392.34;5072827;28;19916;-82
2022/10/06 03:37:15;;;;;;;;;;;;;;;11.67;100.00;14042.94;5072877;28;20391;-80
2022/10/06 03:39:40;;;;;;;;;;;;;;;11.63;100.00;14041.53;5072401;28;19970;-82
2022/10/06 03:42:13;;;;;;;;;;;;;;;11.61;100.00;14041.00;5072220;28;20330;-80
2022/10/06 03:44:39;;;;;;;;;;;;;;;11.53;100.00;12387.31;5078289;28;20022;-82
2022/10/06 03:47:04;;;;;;;;;;;;;;;11.51;100.00;12386.69;5079133;28;20025;-81
2022/10/06 03:49:29;;;;;;;;;;;;;;;11.54;100.00;11397.44;5087238;28;19916;-79
2022/10/06 03:51:55;;;;;;;;;;;;;;;11.46;100.00;11725.13;5078169;28;19920;-81
2022/10/06 03:54:20;;;;;;;;;;;;;;;11.41;100.00;10733.75;5075133;28;20426;-81
2022/10/06 03:56:45;;;;;;;;;;;;;;;11.43;100.00;9744.72;5060889;28;19959;-78
2022/10/06 03:59:12;;;;;;;;;;;;;;;11.40;100.00;9414.09;5079671;28;19922;-77
2022/10/06 04:01:38;;;;;;;;;;;;;;;11.39;100.00;8754.31;5091809;28;19920;-79
2022/10/06 04:04:06;;;;;;;;;;;;;;;11.35;100.00;7434.69;5078422;28;19920;-81
2022/10/06 04:06:34;;;;;;;;;;;;;;;11.35;100.00;6116.56;5068651;28;19970;-82
2022/10/06 04:08:59;;;;;;;;;;;;;;;11.28;100.00;4138.91;5076600;28;19971;-80
2022/10/06 04:11:36;;;;;;;;;;;;;;;11.30;100.00;1835.03;5079980;28;19920;-78
2022/10/06 04:14:05;;;;;;;;;;;;;;;11.29;100.00;518.78;5078346;28;19930;-78
2022/10/06 04:16:32;;;;;;;;;;;;;;;11.27;100.00;-139.31;5095257;28;19959;-77
2022/10/06 04:18:58;;;;;;;;;;;;;;;11.25;100.00;-797.28;5095525;28;19916;-78
2022/10/06 04:21:25;;;;;;;;;;;;;;;11.27;100.00;-1454.69;5085321;28;20010;-76
2022/10/06 04:23:53;;;;;;;;;;;;;;;11.20;100.00;-2441.50;5079910;28;20341;-82
2022/10/06 04:26:19;;;;;;;;;;;;;;;11.14;100.00;-3756.22;5087247;28;20384;-82
2022/10/06 04:28:44;;;;;;;;;;;;;;;11.05;100.00;-5070.44;5088171;28;19974;-82
2022/10/06 04:31:13;;;;;;;;;;;;;;;11.07;100.00;-6383.66;5089298;28;19920;-80
2022/10/06 04:33:54;;;;;;;;;;;;;;;11.06;100.00;-7368.31;5072475;28;19927;-80
2022/10/06 04:36:26;;;;;;;;;;;;;;;11.04;100.00;-8352.66;5082524;28;19955;-77
2022/10/06 04:38:57;;;;;;;;;;;;;;;10.96;100.00;-9008.56;5085431;28;20018;-78
2022/10/06 04:41:23;;;;;;;;;;;;;;;11.06;100.00;-10320.72;5094132;28;19917;-76
2022/10/06 04:43:49;;;;;;;;;;;;;;;11.01;100.00;-10648.38;5096272;28;20248;-77
2022/10/06 04:46:16;;;;;;;;;;;;;;;10.91;100.00;-11303.41;5101573;28;19986;-82
2022/10/06 04:48:42;;;;;;;;;;;;;;;10.82;100.00;-12285.84;5083058;28;19920;-83
2022/10/06 04:51:12;;;;;;;;;;;;;;;10.79;100.00;-13268.31;5088993;28;19974;-84
2022/10/06 04:53:38;;;;;;;;;;;;;;;10.70;100.00;-13594.94;5071236;28;19931;-85
2022/10/06 04:56:05;;;;;;;;;;;;;;;10.66;100.00;-14576.75;5068814;28;19925;-85
2022/10/06 04:58:36;;;;;;;;;;;;;;;10.64;100.00;-15558.38;5071503;28;19920;-86
2022/10/06 05:01:02;;;;;;;;;;;;;;;10.63;100.00;-16212.69;5086861;28;19921;-82
2022/10/06 05:03:34;;;;;;;;;;;;;;;10.60;100.00;-16866.56;5103244;28;19955;-84
2022/10/06 05:06:06;;;;;;;;;;;;;;;10.59;100.00;-17520.56;5099698;28;20056;-80
2022/10/06 05:08:32;;;;;;;;;;;;;;;10.57;100.00;-18174.38;5094582;28;19921;-81
2022/10/06 05:10:59;;;;;;;;;;;;;;;10.56;100.00;-18828.03;5094331;28;19927;-78
2022/10/06 05:13:26;;;;;;;;;;;;;;;10.54;100.00;-19481.53;5098598;28;20263;-76
2022/10/06 05:15:58;;;;;;;;;;;;;;;10.51;100.00;-20134.47;5096803;28;20380;-79
2022/10/06 05:18:24;;;;;;;;;;;;;;;10.43;100.00;-20786.25;5096203;28;19923;-79
2022/10/06 05:20:56;;;;;;;;;;;;;;;10.38;100.00;-21765.25;5099136;28;20320;-77
2022/10/06 05:23:26;;;;;;;;;;;;;;;10.32;100.00;-22743.41;5102221;28;19924;-85
2022/10/06 05:25:53;;;;;;;;;;;;;;;10.26;100.00;-24047.41;5102205;28;19917;-83
2022/10/06 05:28:19;;;;;;;;;;;;;;;10.22;100.00;-25351.34;5083643;28;19975;-84
2022/10/06 05:31:13;;;;;;;;;;;;;;;10.20;100.00;-25352.66;5076884;28;19921;-77
2022/10/06 05:33:40;;;;;;;;;;;;;;;10.20;100.00;-25352.81;5044244;28;19922;-83
2022/10/06 05:36:10;;;;;;;;;;;;;;;10.18;100.00;-25352.06;5099463;28;19916;-81
2022/10/06 05:38:37;;;;;;;;;;;;;;;10.14;100.00;-25350.91;5079065;28;20396;-80
2022/10/06 05:41:06;;;;;;;;;;;;;;;10.13;100.00;-25350.59;5078877;28;19920;-79
2022/10/06 05:43:34;;;;;;;;;;;;;;;10.13;100.00;-25350.59;5080186;28;20007;-81
2022/10/06 05:46:01;;;;;;;;;;;;;;;10.14;100.00;-25350.91;5097749;28;19916;-78
2022/10/06 05:48:27;;;;;;;;;;;;;;;10.11;100.00;-25350.03;5097928;28;19916;-77
2022/10/06 05:51:04;;;;;;;;;;;;;;;10.13;100.00;-25350.59;5095119;28;19920;-83
2022/10/06 05:53:37;;;;;;;;;;;;;;;10.16;100.00;-25351.63;5089645;28;20376;-80
2022/10/06 05:56:05;;;;;;;;;;;;;;;10.14;100.00;-25350.91;5080013;28;19954;-82
2022/10/06 05:58:31;;;;;;;;;;;;;;;10.17;100.00;-25351.78;5092276;28;19958;-78
2022/10/06 06:01:04;;;;;;;;;;;;;;;10.21;100.00;-25352.97;5093092;28;19916;-77
2022/10/06 06:03:31;;;;;;;;;;;;;;;10.16;100.00;-25351.47;5092715;28;20291;-77
2022/10/06 06:05:56;;;;;;;;;;;;;;;10.15;100.00;-25351.34;5074005;28;19931;-78
2022/10/06 06:08:21;;;;;;;;;;;;;;;10.18;100.00;-25352.06;5071294;28;19928;-78
2022/10/06 06:10:47;;;;;;;;;;;;;;;10.20;100.00;-25352.81;5073596;28;20016;-77
2022/10/06 06:13:18;;;;;;;;;;;;;;;10.21;100.00;-25353.09;5082955;28;19946;-78
2022/10/06 06:16:00;;;;;;;;;;;;;;;10.24;100.00;-25353.84;5090412;28;19965;-80
2022/10/06 06:18:28;;;;;;;;;;;;;;;10.33;100.00;-25356.47;5074931;28;20482;-79
2022/10/06 06:20:56;;;;;;;;;;;;;;;10.38;100.00;-25357.94;5075313;28;20053;-77
2022/10/06 06:23:23;;;;;;;;;;;;;;;10.46;100.00;-25360.00;5074270;28;20225;-79
2022/10/06 06:25:57;;;;;;;;;;;;;;;10.55;100.00;-25362.63;5090441;28;19990;-81
2022/10/06 06:28:22;;;;;;;;;;;;;;;10.59;100.00;-25363.81;5074586;28;19924;-82
2022/10/06 06:30:47;;;;;;;;;;;;;;;10.64;100.00;-25365.28;5075195;28;19922;-77
2022/10/06 06:33:14;;;;;;;;;;;;;;;10.89;100.00;-25372.31;5092912;28;20430;-77
2022/10/06 06:35:39;;;;;;;;;;;;;;;11.01;100.00;-25375.84;5074965;28;20038;-77
2022/10/06 06:38:10;;;;;;;;;;;;;;;11.01;100.00;-25375.84;5074760;28;19962;-79
2022/10/06 06:40:39;;;;;;;;;;;;;;;11.03;100.00;-25376.44;5075333;28;19916;-78
2022/10/06 06:43:04;;;;;;;;;;;;;;;11.07;100.00;-25377.59;5074910;28;19920;-77
2022/10/06 06:45:31;;;;;;;;;;;;;;;11.09;100.00;-25378.19;5075283;28;19912;-78
2022/10/06 06:47:56;;;;;;;;;;;;;;;11.21;100.00;-25381.41;5075328;28;20007;-77
2022/10/06 06:50:31;;;;;;;;;;;;;;;11.30;100.00;-25384.19;5075235;28;19995;-78
2022/10/06 06:53:01;;;;;;;;;;;;;;;11.28;100.00;-25383.47;5092858;28;19916;-79
2022/10/06 06:55:28;;;;;;;;;;;;;;;11.40;100.00;-25386.84;5092836;28;20332;-78
2022/10/06 06:57:53;;;;;;;;;;;;;;;11.44;100.00;-25388.16;5074882;28;19920;-76
2022/10/06 07:00:19;;;;;;;;;;;;;;;11.54;100.00;-25388.88;5092172;28;19923;-75
2022/10/06 07:02:46;;;;;;;;;;;;;;;11.61;100.00;-24737.03;5074273;28;20344;-77
2022/10/06 07:05:11;;;;;;;;;;;;;;;11.71;100.00;-23758.53;5074101;28;19920;-77
2022/10/06 07:07:36;;;;;;;;;;;;;;;11.84;100.00;-22780.38;5073919;28;19916;-76
2022/10/06 07:10:02;;;;;;;;;;;;;;;12.14;100.00;-22460.19;5092532;28;19920;-76
2022/10/06 07:12:28;;;;;;;;;;;;;;;12.44;100.00;-20829.09;5090380;28;20356;-78
2022/10/06 07:25:58;;;;;;;;;;;;;;;13.16;100.00;-117.47;5092645;28;19982;-78
2022/10/06 07:28:29;;;;;;;;;;;;;;;13.17;100.00;3513.16;5073173;28;20220;-81
2022/10/06 07:30:58;;;;;;;;;;;;;;;12.95;100.00;4499.81;5073563;28;19924;-77
2022/10/06 07:33:23;;;;;;;;;;;;;;;12.91;100.00;5489.59;5090601;28;20361;-78
2022/10/06 07:35:48;;;;;;;;;;;;;;;12.86;100.00;5488.53;5090937;28;19916;-77
2022/10/06 07:38:14;;;;;;;;;;;;;;;12.88;100.00;5819.31;5073800;28;19920;-77
2022/10/06 07:40:39;;;;;;;;;;;;;;;12.83;100.00;5487.91;5094151;28;19962;-82
2022/10/06 07:43:05;;;;;;;;;;;;;;;12.96;100.00;4499.91;5086538;28;19927;-83
2022/10/06 07:45:40;;;;;;;;;;;;;;;13.42;100.00;5169.59;5084751;28;19917;-81
2022/10/06 07:48:08;;;;;;;;;;;;;;;13.96;100.00;10476.34;5070135;28;19917;-77
2022/10/06 07:50:36;;;;;;;;;;;;;;;14.64;100.00;23115.94;5067676;28;19928;-78
2022/10/06 07:53:07;;;;;;;;;;;;;;;15.00;100.00;43489.22;5069380;28;19921;-78
2022/10/06 07:55:32;;;;;;;;;;;;;;;15.59;100.00;64018.97;5075729;28;19928;-80
2022/10/06 07:57:58;;;;;;;;;;;;;;;15.79;100.00;93445.72;5070958;28;19924;-79
2022/10/06 08:00:25;;;;;;;;;;;;;;;15.86;100.00;125813.91;5056892;28;19924;-77
2022/10/06 08:02:53;;;;;;;;;;;;;;;15.93;100.00;146740.25;5075102;28;19973;-82
2022/10/06 08:05:20;;;;;;;;;;;;;;;16.30;100.00;146832.22;5071428;28;19955;-86
2022/10/06 08:07:45;;;;;;;;;;;;;;;16.55;100.00;146893.53;5087216;28;19920;-80
2022/10/06 08:10:11;;;;;;;;;;;;;;;16.45;100.00;146869.22;5091935;28;19928;-78
2022/10/06 08:12:36;;;;;;;;;;;;;;;16.93;100.00;146989.38;5087536;28;20376;-77
2022/10/06 08:15:05;;;;;;;;;;;;;;;16.52;100.00;146887.13;5074265;28;19927;-76
2022/10/06 08:17:32;;;;;;;;;;;;;;;16.41;100.00;146859.03;5078335;28;19926;-76
2022/10/06 08:19:57;;;;;;;;;;;;;;;16.28;100.00;146827.06;5086501;28;19923;-78
2022/10/06 08:22:28;;;;;;;;;;;;;;;16.73;100.00;146938.22;5076426;28;19917;-76
2022/10/06 08:24:54;;;;;;;;;;;;;;;16.95;100.00;146994.53;5091001;28;19931;-77
2022/10/06 08:27:22;;;;;;;;;;;;;;;16.78;100.00;146950.97;5075505;28;19917;-77
2022/10/06 08:29:47;;;;;;;;;;;;;;;16.59;100.00;146903.72;5074346;28;20003;-77
2022/10/06 08:32:12;;;;;;;;;;;;;;;16.79;100.00;146954.81;5076967;28;20017;-77
2022/10/06 08:34:38;;;;;;;;;;;;;;;16.67;100.00;146924.16;5076553;28;20051;-76
2022/10/06 08:37:03;;;;;;;;;;;;;;;16.31;100.00;146834.72;5075943;28;19917;-84
2022/10/06 08:39:29;;;;;;;;;;;;;;;16.26;100.00;146823.22;5076791;28;19963;-82
2022/10/06 08:41:56;;;;;;;;;;;;;;;16.02;100.00;146761.91;5087532;28;19951;-76
2022/10/06 08:44:39;;;;;;;;;;;;;;;15.65;100.00;146671.22;5079346;28;19920;-82
2022/10/06 08:47:21;;;;;;;;;;;;;;;15.46;100.00;146622.69;5086043;28;20023;-76
2022/10/06 08:49:47;;;;;;;;;;;;;;;15.51;100.00;146636.75;5077904;28;19998;-82
2022/10/06 08:52:31;;;;;;;;;;;;;;;15.50;100.00;146632.94;5080278;28;19954;-75
2022/10/06 08:55:02;;;;;;;;;;;;;;;15.46;100.00;146624.00;5079461;28;20007;-79
2022/10/06 08:57:27;;;;;;;;;;;;;;;15.48;100.00;146627.84;5091656;28;19963;-80
2022/10/06 08:59:53;;;;;;;;;;;;;;;15.42;100.00;146613.78;5078057;28;20384;-79
2022/10/06 09:02:33;;;;;;;;;;;;;;;15.36;100.00;146599.72;5079192;28;20525;-78
2022/10/06 09:05:01;;;;;;;;;;;;;;;15.29;100.00;146581.88;5095992;28;19966;-76
2022/10/06 09:07:31;;;;;;;;;;;;;;;15.20;100.00;146560.16;5082105;28;19959;-84
2022/10/06 09:10:09;;;;;;;;;;;;;;;15.23;100.00;146566.56;5059695;28;19982;-84
2022/10/06 09:12:46;;;;;;;;;;;;;;;15.30;100.00;146584.41;5071674;28;19916;-84
2022/10/06 09:15:29;;;;;;;;;;;;;;;15.37;100.00;146601.03;5080951;28;19912;-86
2022/10/06 09:18:00;;;;;;;;;;;;;;;15.24;100.00;146570.41;5099142;28;19916;-81
2022/10/06 09:20:33;;;;;;;;;;;;;;;15.04;100.00;146519.34;5078895;28;19923;-81
2022/10/06 09:22:59;;;;;;;;;;;;;;;14.94;100.00;146495.06;5078054;28;19916;-85
2022/10/06 09:25:27;;;;;;;;;;;;;;;14.88;100.00;146479.75;5075454;28;19916;-78
2022/10/06 09:27:58;;;;;;;;;;;;;;;14.58;100.00;146405.72;5088291;28;19920;-83
2022/10/06 09:30:23;;;;;;;;;;;;;;;14.48;100.00;146381.50;5077346;28;19920;-77
2022/10/06 09:32:58;;;;;;;;;;;;;;;14.42;100.00;146364.88;5092285;28;19927;-78
2022/10/06 09:35:24;;;;;;;;;;;;;;;14.50;100.00;146386.59;5074818;28;20003;-75
2022/10/06 09:37:53;;;;;;;;;;;;;;;14.77;100.00;146452.97;5074903;28;20010;-80
2022/10/06 09:40:38;;;;;;;;;;;;;;;15.10;100.00;146533.34;5076469;28;19916;-81
2022/10/06 09:43:16;;;;;;;;;;;;;;;15.30;100.00;146584.41;5094133;28;19919;-83
2022/10/06 09:45:41;;;;;;;;;;;;;;;15.68;100.00;146678.91;5078617;28;19916;-83
2022/10/06 09:48:12;;;;;;;;;;;;;;;15.87;100.00;146724.91;5080363;28;19950;-82
2022/10/06 09:50:39;;;;;;;;;;;;;;;16.12;100.00;146788.75;5079843;28;19916;-83
2022/10/06 09:53:11;;;;;;;;;;;;;;;16.25;100.00;146820.72;5083534;28;19924;-79
2022/10/06 09:55:36;;;;;;;;;;;;;;;16.36;100.00;146847.53;5082190;28;20263;-83
2022/10/06 09:58:02;;;;;;;;;;;;;;;16.27;100.00;146824.53;5083510;28;20133;-79
2022/10/06 10:00:28;;;;;;;;;;;;;;;16.06;100.00;146773.41;5081904;28;20466;-76
2022/10/06 10:02:57;;;;;;;;;;;;;;;16.21;100.00;146809.22;5076285;28;20017;-76
2022/10/06 10:05:23;;;;;;;;;;;;;;;16.24;100.00;146816.88;5057111;28;20033;-82
2022/10/06 10:08:08;;;;;;;;;;;;;;;16.15;100.00;146795.16;5075630;28;19916;-84
2022/10/06 10:10:35;;;;;;;;;;;;;;;15.97;100.00;146751.72;5075914;28;20399;-76
2022/10/06 10:13:01;;;;;;;;;;;;;;;16.04;100.00;146767.06;5057580;28;19928;-74
2022/10/06 10:15:39;;;;;;;;;;;;;;;15.91;100.00;146735.09;5074527;28;19916;-76
2022/10/06 10:18:10;;;;;;;;;;;;;;;16.07;100.00;146776.00;5062035;28;19947;-80
2022/10/06 10:20:38;;;;;;;;;;;;;;;16.20;100.00;146806.63;5061308;28;19928;-75
2022/10/06 10:23:17;;;;;;;;;;;;;;;16.09;100.00;146781.06;5073553;28;19935;-74
2022/10/06 10:25:43;;;;;;;;;;;;;;;16.06;100.00;146773.41;5068119;28;19936;-75
2022/10/06 10:28:16;;;;;;;;;;;;;;;16.26;100.00;146823.22;5055851;28;19912;-75
2022/10/06 10:30:50;;;;;;;;;;;;;;;16.18;100.00;146801.56;5057357;28;19924;-77
2022/10/06 10:33:28;;;;;;;;;;;;;;;16.19;100.00;146804.06;5063503;28;19913;-75
2022/10/06 10:35:54;;;;;;;;;;;;;;;16.28;100.00;146827.06;5058124;28;19920;-76
2022/10/06 10:38:23;;;;;;;;;;;;;;;16.31;100.00;146834.72;5075070;28;19963;-77
2022/10/06 10:40:50;;;;;;;;;;;;;;;16.33;100.00;146839.88;5057029;28;20381;-75
2022/10/06 10:43:28;;;;;;;;;;;;;;;16.12;100.00;146788.75;5057071;28;19916;-75
2022/10/06 10:46:13;;;;;;;;;;;;;;;16.14;100.00;146793.88;5057773;28;19920;-76
2022/10/06 10:48:41;;;;;;;;;;;;;;;16.05;100.00;146770.91;5057120;28;19921;-75
2022/10/06 10:51:26;;;;;;;;;;;;;;;15.95;100.00;146745.34;5056772;28;20270;-76
2022/10/06 10:54:03;;;;;;;;;;;;;;;16.08;100.00;146778.56;5056722;28;19922;-76
2022/10/06 10:56:30;;;;;;;;;;;;;;;16.17;100.00;146798.97;5064051;28;20420;-76
2022/10/06 10:59:03;;;;;;;;;;;;;;;16.01;100.00;146760.66;5085889;28;19921;-82
2022/10/06 11:01:31;;;;;;;;;;;;;;;16.07;100.00;146774.72;5073369;28;19916;-79
2022/10/06 11:03:59;;;;;;;;;;;;;;;16.27;100.00;146825.81;5056210;28;19916;-79
2022/10/06 11:07:03;;;;;;;;;;;;;;;16.36;100.00;146847.53;5055066;28;19927;-78
2022/10/06 11:09:43;;;;;;;;;;;;;;;16.29;100.00;146829.63;4973494;28;19953;-77
2022/10/06 11:12:15;;;;;;;;;;;;;;;16.29;100.00;146830.91;4977541;28;19964;-79
2022/10/06 11:14:53;;;;;;;;;;;;;;;16.19;100.00;146804.06;5029972;28;19917;-76
2022/10/06 11:17:45;;;;;;;;;;;;;;;16.27;100.00;146825.81;5039014;28;20007;-82
2022/10/06 11:20:18;;;;;;;;;;;;;;;16.27;100.00;146824.53;5040738;28;19921;-79
2022/10/06 11:22:58;;;;;;;;;;;;;;;16.33;100.00;146839.88;5034722;28;19921;-76
2022/10/06 11:25:31;;;;;;;;;;;;;;;16.25;100.00;146820.72;5037695;28;20007;-80
2022/10/06 11:27:56;;;;;;;;;;;;;;;16.36;100.00;146847.53;5039300;28;20007;-76
2022/10/06 11:30:25;;;;;;;;;;;;;;;16.30;100.00;146833.47;5057165;28;19991;-79
2022/10/06 11:33:16;;;;;;;;;;;;;;;16.30;100.00;146832.22;5056904;28;20349;-77
2022/10/06 11:35:43;;;;;;;;;;;;;;;16.36;100.00;146846.22;5060058;28;19917;-79
2022/10/06 11:38:18;;;;;;;;;;;;;;;16.50;100.00;146883.28;5075197;28;19916;-80
2022/10/06 11:40:56;;;;;;;;;;;;;;;16.50;100.00;146883.28;5074065;28;19991;-78
2022/10/06 11:43:28;;;;;;;;;;;;;;;16.40;100.00;146857.72;5078448;28;19923;-75
2022/10/06 11:45:59;;;;;;;;;;;;;;;16.39;100.00;146855.19;5073475;28;20365;-76
2022/10/06 11:48:26;;;;;;;;;;;;;;;16.51;100.00;146885.88;5058709;28;19923;-79
2022/10/06 11:50:54;;;;;;;;;;;;;;;16.72;100.00;146936.97;5070103;28;19917;-84
2022/10/06 11:53:33;;;;;;;;;;;;;;;16.83;100.00;146963.78;5072796;28;19966;-80
2022/10/06 11:56:14;;;;;;;;;;;;;;;16.85;100.00;146970.16;5055216;28;19999;-85
2022/10/06 11:58:51;;;;;;;;;;;;;;;16.83;100.00;146963.78;5059087;28;19916;-83
2022/10/06 12:01:29;;;;;;;;;;;;;;;16.79;100.00;146953.56;5058818;28;19920;-82
2022/10/06 12:04:11;;;;;;;;;;;;;;;16.94;100.00;146990.69;5056684;28;20248;-83
2022/10/06 12:06:45;;;;;;;;;;;;;;;17.11;100.00;147032.84;5079074;28;19924;-84
2022/10/06 12:09:29;;;;;;;;;;;;;;;16.90;100.00;146980.44;5066430;28;19923;-85
2022/10/06 12:12:13;;;;;;;;;;;;;;;16.82;100.00;146961.22;5070099;28;20002;-82
2022/10/06 12:14:58;;;;;;;;;;;;;;;16.82;100.00;146962.47;5081696;28;19917;-85
2022/10/06 12:17:26;;;;;;;;;;;;;;;16.80;100.00;146956.13;5078395;28;19917;-80
2022/10/06 12:19:57;;;;;;;;;;;;;;;16.66;100.00;146921.63;5078076;28;19975;-80
2022/10/06 12:22:43;;;;;;;;;;;;;;;16.71;100.00;146934.38;5077040;28;20270;-76
2022/10/06 12:25:15;;;;;;;;;;;;;;;16.66;100.00;146922.88;5076121;28;20046;-81
2022/10/06 12:27:49;;;;;;;;;;;;;;;16.81;100.00;146959.97;5096000;28;19920;-79
2022/10/06 12:30:20;;;;;;;;;;;;;;;16.69;100.00;146929.28;5096413;28;19962;-79
2022/10/06 12:32:52;;;;;;;;;;;;;;;16.84;100.00;146967.63;5096894;28;19916;-78
2022/10/06 12:35:29;;;;;;;;;;;;;;;16.76;100.00;146947.16;5084042;28;19923;-77
2022/10/06 12:37:57;;;;;;;;;;;;;;;16.90;100.00;146980.44;5060635;28;19931;-81
2022/10/06 12:40:45;;;;;;;;;;;;;;;16.91;100.00;146983.00;5060531;28;20327;-78
2022/10/06 12:43:24;;;;;;;;;;;;;;;16.98;100.00;147000.88;5076056;28;20009;-79
2022/10/06 12:45:53;;;;;;;;;;;;;;;16.87;100.00;146974.03;5060958;28;19923;-80
2022/10/06 12:48:21;;;;;;;;;;;;;;;16.84;100.00;146967.63;5078726;28;19916;-78
2022/10/06 12:50:48;;;;;;;;;;;;;;;17.03;100.00;147013.69;5077347;28;20011;-78
2022/10/06 12:53:19;;;;;;;;;;;;;;;17.01;100.00;147009.84;5061755;28;19916;-75
2022/10/06 12:55:51;;;;;;;;;;;;;;;16.97;100.00;146998.34;5061062;28;19917;-75